sensor_id;sensor_type;location;lat;lon;timestamp;P1;durP1;ratioP1;P2;durP2;ratioP2
14528;SDS011;7351;51.194;4.098;2023-05-16T00:00:15;9.23;;;4.43;;
14528;SDS011;7351;51.194;4.098;2023-05-16T00:02:45;7.23;;;3.13;;
14528;SDS011;7351;51.194;4.098;2023-05-16T00:05:12;5.77;;;3.20;;
14528;SDS011;7351;51.194;4.098;2023-05-16T00:07:40;5.53;;;3.00;;
14528;SDS011;7351;51.194;4.098;2023-05-16T00:10:08;7.97;;;3.73;;
14528;SDS011;7351;51.194;4.098;2023-05-16T00:12:36;7.03;;;3.93;;
14528;SDS011;7351;51.194;4.098;2023-05-16T00:15:04;4.63;;;2.90;;
14528;SDS011;7351;51.194;4.098;2023-05-16T00:17:33;5.87;;;4.00;;
14528;SDS011;7351;51.194;4.098;2023-05-16T00:20:02;8.47;;;3.67;;
14528;SDS011;7351;51.194;4.098;2023-05-16T00:22:35;6.37;;;3.10;;
14528;SDS011;7351;51.194;4.098;2023-05-16T00:25:02;6.67;;;3.20;;
14528;SDS011;7351;51.194;4.098;2023-05-16T00:27:30;6.43;;;3.47;;
14528;SDS011;7351;51.194;4.098;2023-05-16T00:29:58;6.47;;;3.60;;
14528;SDS011;7351;51.194;4.098;2023-05-16T00:32:26;7.17;;;3.73;;
14528;SDS011;7351;51.194;4.098;2023-05-16T00:34:53;3.73;;;2.50;;
14528;SDS011;7351;51.194;4.098;2023-05-16T00:37:21;7.43;;;3.50;;
14528;SDS011;7351;51.194;4.098;2023-05-16T00:39:48;8.03;;;3.67;;
14528;SDS011;7351;51.194;4.098;2023-05-16T00:42:17;6.80;;;3.73;;
14528;SDS011;7351;51.194;4.098;2023-05-16T00:44:44;5.40;;;3.23;;
14528;SDS011;7351;51.194;4.098;2023-05-16T00:47:11;5.83;;;3.23;;
14528;SDS011;7351;51.194;4.098;2023-05-16T00:49:38;5.60;;;2.90;;
14528;SDS011;7351;51.194;4.098;2023-05-16T00:52:05;6.77;;;3.17;;
14528;SDS011;7351;51.194;4.098;2023-05-16T00:54:34;5.53;;;2.33;;
14528;SDS011;7351;51.194;4.098;2023-05-16T00:57:01;6.07;;;3.07;;
14528;SDS011;7351;51.194;4.098;2023-05-16T00:59:30;7.27;;;3.37;;
14528;SDS011;7351;51.194;4.098;2023-05-16T01:01:57;8.67;;;3.90;;
14528;SDS011;7351;51.194;4.098;2023-05-16T01:04:24;8.27;;;3.20;;
14528;SDS011;7351;51.194;4.098;2023-05-16T01:06:53;8.37;;;3.80;;
14528;SDS011;7351;51.194;4.098;2023-05-16T01:09:21;7.47;;;3.53;;
14528;SDS011;7351;51.194;4.098;2023-05-16T01:11:51;4.90;;;2.67;;
14528;SDS011;7351;51.194;4.098;2023-05-16T01:14:25;4.50;;;2.93;;
14528;SDS011;7351;51.194;4.098;2023-05-16T01:17:04;6.00;;;3.30;;
14528;SDS011;7351;51.194;4.098;2023-05-16T01:19:46;5.90;;;2.97;;
14528;SDS011;7351;51.194;4.098;2023-05-16T01:22:27;7.00;;;3.93;;
14528;SDS011;7351;51.194;4.098;2023-05-16T01:25:00;4.13;;;2.30;;
14528;SDS011;7351;51.194;4.098;2023-05-16T01:27:33;7.10;;;2.77;;
14528;SDS011;7351;51.194;4.098;2023-05-16T01:30:09;7.93;;;3.50;;
14528;SDS011;7351;51.194;4.098;2023-05-16T01:32:39;7.27;;;2.90;;
14528;SDS011;7351;51.194;4.098;2023-05-16T01:35:07;6.27;;;3.23;;
14528;SDS011;7351;51.194;4.098;2023-05-16T01:37:37;7.53;;;3.27;;
14528;SDS011;7351;51.194;4.098;2023-05-16T01:40:11;4.07;;;2.53;;
14528;SDS011;7351;51.194;4.098;2023-05-16T01:42:44;4.83;;;2.00;;
14528;SDS011;7351;51.194;4.098;2023-05-16T01:45:14;6.50;;;2.63;;
14528;SDS011;7351;51.194;4.098;2023-05-16T01:47:51;6.93;;;2.90;;
14528;SDS011;7351;51.194;4.098;2023-05-16T01:50:24;4.47;;;2.77;;
14528;SDS011;7351;51.194;4.098;2023-05-16T01:52:52;3.67;;;2.40;;
14528;SDS011;7351;51.194;4.098;2023-05-16T01:55:27;5.93;;;3.10;;
14528;SDS011;7351;51.194;4.098;2023-05-16T01:58:02;5.63;;;2.93;;
14528;SDS011;7351;51.194;4.098;2023-05-16T02:00:30;4.87;;;2.60;;
14528;SDS011;7351;51.194;4.098;2023-05-16T02:02:57;6.07;;;2.87;;
14528;SDS011;7351;51.194;4.098;2023-05-16T02:05:24;5.63;;;3.60;;
14528;SDS011;7351;51.194;4.098;2023-05-16T02:07:51;6.13;;;3.13;;
14528;SDS011;7351;51.194;4.098;2023-05-16T02:10:18;4.53;;;2.57;;
14528;SDS011;7351;51.194;4.098;2023-05-16T02:12:46;4.03;;;2.33;;
14528;SDS011;7351;51.194;4.098;2023-05-16T02:15:14;5.33;;;3.47;;
14528;SDS011;7351;51.194;4.098;2023-05-16T02:17:41;6.80;;;3.07;;
14528;SDS011;7351;51.194;4.098;2023-05-16T02:20:08;4.00;;;2.70;;
14528;SDS011;7351;51.194;4.098;2023-05-16T02:22:37;4.63;;;2.83;;
14528;SDS011;7351;51.194;4.098;2023-05-16T02:25:05;5.53;;;3.20;;
14528;SDS011;7351;51.194;4.098;2023-05-16T02:27:32;5.00;;;2.63;;
14528;SDS011;7351;51.194;4.098;2023-05-16T02:30:00;4.13;;;2.33;;
14528;SDS011;7351;51.194;4.098;2023-05-16T02:32:28;7.10;;;2.87;;
14528;SDS011;7351;51.194;4.098;2023-05-16T02:34:55;5.23;;;2.67;;
14528;SDS011;7351;51.194;4.098;2023-05-16T02:37:22;4.87;;;2.63;;
14528;SDS011;7351;51.194;4.098;2023-05-16T02:39:49;4.20;;;2.23;;
14528;SDS011;7351;51.194;4.098;2023-05-16T02:42:16;5.53;;;2.83;;
14528;SDS011;7351;51.194;4.098;2023-05-16T02:44:43;4.50;;;2.20;;
14528;SDS011;7351;51.194;4.098;2023-05-16T02:47:10;6.03;;;2.73;;
14528;SDS011;7351;51.194;4.098;2023-05-16T02:49:38;4.23;;;2.50;;
14528;SDS011;7351;51.194;4.098;2023-05-16T02:52:05;5.97;;;3.00;;
14528;SDS011;7351;51.194;4.098;2023-05-16T02:54:32;7.43;;;2.97;;
14528;SDS011;7351;51.194;4.098;2023-05-16T02:56:59;3.90;;;2.33;;
14528;SDS011;7351;51.194;4.098;2023-05-16T02:59:26;3.70;;;2.27;;
14528;SDS011;7351;51.194;4.098;2023-05-16T03:01:53;6.00;;;2.93;;
14528;SDS011;7351;51.194;4.098;2023-05-16T03:04:20;3.67;;;2.43;;
14528;SDS011;7351;51.194;4.098;2023-05-16T03:06:49;7.30;;;3.33;;
14528;SDS011;7351;51.194;4.098;2023-05-16T03:09:16;5.20;;;2.87;;
14528;SDS011;7351;51.194;4.098;2023-05-16T03:11:43;5.70;;;2.53;;
14528;SDS011;7351;51.194;4.098;2023-05-16T03:14:10;6.07;;;3.17;;
14528;SDS011;7351;51.194;4.098;2023-05-16T03:16:37;4.57;;;2.30;;
14528;SDS011;7351;51.194;4.098;2023-05-16T03:19:07;5.03;;;1.80;;
14528;SDS011;7351;51.194;4.098;2023-05-16T03:21:34;5.03;;;2.53;;
14528;SDS011;7351;51.194;4.098;2023-05-16T03:24:03;4.13;;;2.17;;
14528;SDS011;7351;51.194;4.098;2023-05-16T03:26:30;5.97;;;2.50;;
14528;SDS011;7351;51.194;4.098;2023-05-16T03:28:57;5.20;;;3.17;;
14528;SDS011;7351;51.194;4.098;2023-05-16T03:31:24;5.63;;;2.40;;
14528;SDS011;7351;51.194;4.098;2023-05-16T03:33:51;5.30;;;2.60;;
14528;SDS011;7351;51.194;4.098;2023-05-16T03:36:19;5.43;;;2.60;;
14528;SDS011;7351;51.194;4.098;2023-05-16T03:38:48;7.33;;;2.23;;
14528;SDS011;7351;51.194;4.098;2023-05-16T03:41:16;5.40;;;2.90;;
14528;SDS011;7351;51.194;4.098;2023-05-16T03:43:43;4.97;;;2.50;;
14528;SDS011;7351;51.194;4.098;2023-05-16T03:46:10;4.07;;;2.37;;
14528;SDS011;7351;51.194;4.098;2023-05-16T03:48:37;5.47;;;2.23;;
14528;SDS011;7351;51.194;4.098;2023-05-16T03:51:04;3.00;;;2.07;;
14528;SDS011;7351;51.194;4.098;2023-05-16T03:53:31;3.43;;;2.17;;
14528;SDS011;7351;51.194;4.098;2023-05-16T03:55:58;4.20;;;2.47;;
14528;SDS011;7351;51.194;4.098;2023-05-16T03:58:26;6.10;;;2.67;;
14528;SDS011;7351;51.194;4.098;2023-05-16T04:00:53;5.80;;;2.73;;
14528;SDS011;7351;51.194;4.098;2023-05-16T04:03:20;4.60;;;1.83;;
14528;SDS011;7351;51.194;4.098;2023-05-16T04:05:52;5.23;;;2.30;;
14528;SDS011;7351;51.194;4.098;2023-05-16T04:08:19;6.00;;;2.30;;
14528;SDS011;7351;51.194;4.098;2023-05-16T04:10:46;5.47;;;3.00;;
14528;SDS011;7351;51.194;4.098;2023-05-16T04:13:13;6.83;;;2.47;;
14528;SDS011;7351;51.194;4.098;2023-05-16T04:15:42;5.77;;;2.53;;
14528;SDS011;7351;51.194;4.098;2023-05-16T04:18:09;5.03;;;2.10;;
14528;SDS011;7351;51.194;4.098;2023-05-16T04:20:36;5.37;;;1.90;;
14528;SDS011;7351;51.194;4.098;2023-05-16T04:23:03;4.73;;;2.47;;
14528;SDS011;7351;51.194;4.098;2023-05-16T04:25:31;5.07;;;2.30;;
14528;SDS011;7351;51.194;4.098;2023-05-16T04:27:58;4.73;;;2.13;;
14528;SDS011;7351;51.194;4.098;2023-05-16T04:30:25;4.27;;;1.80;;
14528;SDS011;7351;51.194;4.098;2023-05-16T04:32:53;6.80;;;2.13;;
14528;SDS011;7351;51.194;4.098;2023-05-16T04:35:21;4.13;;;2.03;;
14528;SDS011;7351;51.194;4.098;2023-05-16T04:37:48;7.23;;;2.93;;
14528;SDS011;7351;51.194;4.098;2023-05-16T04:40:15;4.90;;;2.20;;
14528;SDS011;7351;51.194;4.098;2023-05-16T04:42:42;4.90;;;2.80;;
14528;SDS011;7351;51.194;4.098;2023-05-16T04:45:09;7.60;;;2.57;;
14528;SDS011;7351;51.194;4.098;2023-05-16T04:47:38;5.33;;;2.60;;
14528;SDS011;7351;51.194;4.098;2023-05-16T04:50:08;7.03;;;2.23;;
14528;SDS011;7351;51.194;4.098;2023-05-16T04:52:35;4.73;;;2.97;;
14528;SDS011;7351;51.194;4.098;2023-05-16T04:55:03;5.97;;;2.50;;
14528;SDS011;7351;51.194;4.098;2023-05-16T04:57:31;7.37;;;2.70;;
14528;SDS011;7351;51.194;4.098;2023-05-16T04:59:58;4.53;;;3.23;;
14528;SDS011;7351;51.194;4.098;2023-05-16T05:02:24;5.20;;;1.87;;
14528;SDS011;7351;51.194;4.098;2023-05-16T05:04:52;5.07;;;2.43;;
14528;SDS011;7351;51.194;4.098;2023-05-16T05:07:20;5.27;;;2.23;;
14528;SDS011;7351;51.194;4.098;2023-05-16T05:09:47;7.10;;;3.07;;
14528;SDS011;7351;51.194;4.098;2023-05-16T05:12:14;6.70;;;2.53;;
14528;SDS011;7351;51.194;4.098;2023-05-16T05:14:41;4.67;;;2.90;;
14528;SDS011;7351;51.194;4.098;2023-05-16T05:17:08;4.03;;;2.30;;
14528;SDS011;7351;51.194;4.098;2023-05-16T05:19:35;4.37;;;1.90;;
14528;SDS011;7351;51.194;4.098;2023-05-16T05:22:02;7.87;;;2.17;;
14528;SDS011;7351;51.194;4.098;2023-05-16T05:24:30;7.63;;;2.80;;
14528;SDS011;7351;51.194;4.098;2023-05-16T05:26:57;6.20;;;2.77;;
14528;SDS011;7351;51.194;4.098;2023-05-16T05:29:24;7.43;;;2.37;;
14528;SDS011;7351;51.194;4.098;2023-05-16T05:31:52;3.87;;;2.10;;
14528;SDS011;7351;51.194;4.098;2023-05-16T05:34:19;6.20;;;2.90;;
14528;SDS011;7351;51.194;4.098;2023-05-16T05:36:46;3.97;;;2.27;;
14528;SDS011;7351;51.194;4.098;2023-05-16T05:39:13;7.30;;;2.37;;
14528;SDS011;7351;51.194;4.098;2023-05-16T05:41:41;10.33;;;3.10;;
14528;SDS011;7351;51.194;4.098;2023-05-16T05:44:09;12.17;;;3.63;;
14528;SDS011;7351;51.194;4.098;2023-05-16T05:46:35;7.40;;;2.47;;
14528;SDS011;7351;51.194;4.098;2023-05-16T05:49:03;13.60;;;3.10;;
14528;SDS011;7351;51.194;4.098;2023-05-16T05:51:30;11.20;;;3.83;;
14528;SDS011;7351;51.194;4.098;2023-05-16T05:53:57;8.43;;;2.63;;
14528;SDS011;7351;51.194;4.098;2023-05-16T05:56:24;9.07;;;2.20;;
14528;SDS011;7351;51.194;4.098;2023-05-16T05:58:52;9.10;;;3.63;;
14528;SDS011;7351;51.194;4.098;2023-05-16T06:01:19;7.60;;;2.80;;
14528;SDS011;7351;51.194;4.098;2023-05-16T06:03:46;16.87;;;3.97;;
14528;SDS011;7351;51.194;4.098;2023-05-16T06:06:13;7.33;;;2.90;;
14528;SDS011;7351;51.194;4.098;2023-05-16T06:08:40;13.77;;;3.40;;
14528;SDS011;7351;51.194;4.098;2023-05-16T06:11:07;5.47;;;3.73;;
14528;SDS011;7351;51.194;4.098;2023-05-16T06:13:34;12.07;;;2.90;;
14528;SDS011;7351;51.194;4.098;2023-05-16T06:16:03;12.03;;;2.43;;
14528;SDS011;7351;51.194;4.098;2023-05-16T06:18:30;4.07;;;2.50;;
14528;SDS011;7351;51.194;4.098;2023-05-16T06:20:57;7.07;;;3.20;;
14528;SDS011;7351;51.194;4.098;2023-05-16T06:23:24;8.77;;;3.17;;
14528;SDS011;7351;51.194;4.098;2023-05-16T06:25:51;7.37;;;3.30;;
14528;SDS011;7351;51.194;4.098;2023-05-16T06:28:18;9.00;;;3.37;;
14528;SDS011;7351;51.194;4.098;2023-05-16T06:30:45;4.00;;;1.80;;
14528;SDS011;7351;51.194;4.098;2023-05-16T06:33:16;4.90;;;2.73;;
14528;SDS011;7351;51.194;4.098;2023-05-16T06:35:43;6.93;;;3.50;;
14528;SDS011;7351;51.194;4.098;2023-05-16T06:38:10;8.10;;;2.90;;
14528;SDS011;7351;51.194;4.098;2023-05-16T06:40:37;7.57;;;2.70;;
14528;SDS011;7351;51.194;4.098;2023-05-16T06:43:04;7.87;;;3.17;;
14528;SDS011;7351;51.194;4.098;2023-05-16T06:45:31;14.10;;;2.90;;
14528;SDS011;7351;51.194;4.098;2023-05-16T06:47:58;6.20;;;2.97;;
14528;SDS011;7351;51.194;4.098;2023-05-16T06:50:26;14.73;;;3.20;;
14528;SDS011;7351;51.194;4.098;2023-05-16T06:52:53;15.07;;;2.87;;
14528;SDS011;7351;51.194;4.098;2023-05-16T06:55:20;6.67;;;2.93;;
14528;SDS011;7351;51.194;4.098;2023-05-16T06:57:49;9.80;;;2.63;;
14528;SDS011;7351;51.194;4.098;2023-05-16T07:00:17;8.87;;;2.70;;
14528;SDS011;7351;51.194;4.098;2023-05-16T07:02:44;12.63;;;2.67;;
14528;SDS011;7351;51.194;4.098;2023-05-16T07:05:11;13.97;;;3.97;;
14528;SDS011;7351;51.194;4.098;2023-05-16T07:07:41;8.90;;;2.97;;
14528;SDS011;7351;51.194;4.098;2023-05-16T07:10:08;9.93;;;3.23;;
14528;SDS011;7351;51.194;4.098;2023-05-16T07:12:36;6.43;;;2.43;;
14528;SDS011;7351;51.194;4.098;2023-05-16T07:15:06;6.27;;;2.43;;
14528;SDS011;7351;51.194;4.098;2023-05-16T07:17:36;9.60;;;2.70;;
14528;SDS011;7351;51.194;4.098;2023-05-16T07:20:03;4.23;;;2.00;;
14528;SDS011;7351;51.194;4.098;2023-05-16T07:22:32;7.40;;;1.73;;
14528;SDS011;7351;51.194;4.098;2023-05-16T07:25:00;6.13;;;1.90;;
14528;SDS011;7351;51.194;4.098;2023-05-16T07:27:28;8.43;;;2.73;;
14528;SDS011;7351;51.194;4.098;2023-05-16T07:29:56;5.63;;;2.93;;
14528;SDS011;7351;51.194;4.098;2023-05-16T07:32:23;6.17;;;2.30;;
14528;SDS011;7351;51.194;4.098;2023-05-16T07:34:50;6.00;;;3.03;;
14528;SDS011;7351;51.194;4.098;2023-05-16T07:37:17;5.80;;;2.53;;
14528;SDS011;7351;51.194;4.098;2023-05-16T07:39:44;7.60;;;2.97;;
14528;SDS011;7351;51.194;4.098;2023-05-16T07:42:12;4.83;;;2.60;;
14528;SDS011;7351;51.194;4.098;2023-05-16T07:44:39;7.03;;;2.63;;
14528;SDS011;7351;51.194;4.098;2023-05-16T07:47:06;9.03;;;2.77;;
14528;SDS011;7351;51.194;4.098;2023-05-16T07:49:37;7.07;;;2.40;;
14528;SDS011;7351;51.194;4.098;2023-05-16T07:52:05;6.13;;;1.90;;
14528;SDS011;7351;51.194;4.098;2023-05-16T07:54:33;4.37;;;2.10;;
14528;SDS011;7351;51.194;4.098;2023-05-16T07:57:01;7.13;;;2.50;;
14528;SDS011;7351;51.194;4.098;2023-05-16T07:59:30;4.33;;;1.93;;
14528;SDS011;7351;51.194;4.098;2023-05-16T08:01:57;4.47;;;2.53;;
14528;SDS011;7351;51.194;4.098;2023-05-16T08:04:24;3.40;;;1.63;;
14528;SDS011;7351;51.194;4.098;2023-05-16T08:06:51;6.07;;;2.03;;
14528;SDS011;7351;51.194;4.098;2023-05-16T08:09:17;6.97;;;2.10;;
14528;SDS011;7351;51.194;4.098;2023-05-16T08:11:44;5.37;;;2.20;;
14528;SDS011;7351;51.194;4.098;2023-05-16T08:14:11;5.30;;;2.17;;
14528;SDS011;7351;51.194;4.098;2023-05-16T08:16:40;4.93;;;2.10;;
14528;SDS011;7351;51.194;4.098;2023-05-16T08:19:06;4.57;;;1.80;;
14528;SDS011;7351;51.194;4.098;2023-05-16T08:21:34;3.23;;;2.23;;
14528;SDS011;7351;51.194;4.098;2023-05-16T08:24:01;3.57;;;1.80;;
14528;SDS011;7351;51.194;4.098;2023-05-16T08:26:29;3.63;;;1.93;;
14528;SDS011;7351;51.194;4.098;2023-05-16T08:28:57;4.77;;;2.73;;
14528;SDS011;7351;51.194;4.098;2023-05-16T08:31:24;5.30;;;2.50;;
14528;SDS011;7351;51.194;4.098;2023-05-16T08:33:52;5.33;;;2.33;;
14528;SDS011;7351;51.194;4.098;2023-05-16T08:36:19;4.20;;;1.93;;
14528;SDS011;7351;51.194;4.098;2023-05-16T08:38:46;5.97;;;1.87;;
14528;SDS011;7351;51.194;4.098;2023-05-16T08:41:14;3.13;;;2.37;;
14528;SDS011;7351;51.194;4.098;2023-05-16T08:43:41;2.87;;;1.77;;
14528;SDS011;7351;51.194;4.098;2023-05-16T08:46:08;5.07;;;2.30;;
14528;SDS011;7351;51.194;4.098;2023-05-16T08:48:35;3.57;;;2.40;;
14528;SDS011;7351;51.194;4.098;2023-05-16T08:51:05;9.93;;;2.30;;
14528;SDS011;7351;51.194;4.098;2023-05-16T08:53:36;4.20;;;1.73;;
14528;SDS011;7351;51.194;4.098;2023-05-16T08:56:09;3.47;;;1.50;;
14528;SDS011;7351;51.194;4.098;2023-05-16T08:58:38;6.83;;;2.03;;
14528;SDS011;7351;51.194;4.098;2023-05-16T09:01:05;3.67;;;2.30;;
14528;SDS011;7351;51.194;4.098;2023-05-16T09:03:34;6.77;;;2.23;;
14528;SDS011;7351;51.194;4.098;2023-05-16T09:06:02;7.10;;;1.80;;
14528;SDS011;7351;51.194;4.098;2023-05-16T09:08:32;5.30;;;2.00;;
14528;SDS011;7351;51.194;4.098;2023-05-16T09:10:59;6.53;;;1.97;;
14528;SDS011;7351;51.194;4.098;2023-05-16T09:13:27;3.37;;;2.03;;
14528;SDS011;7351;51.194;4.098;2023-05-16T09:16:07;3.53;;;1.70;;
14528;SDS011;7351;51.194;4.098;2023-05-16T09:18:34;4.50;;;1.90;;
14528;SDS011;7351;51.194;4.098;2023-05-16T09:21:02;4.00;;;1.63;;
14528;SDS011;7351;51.194;4.098;2023-05-16T09:23:29;2.20;;;1.40;;
14528;SDS011;7351;51.194;4.098;2023-05-16T09:25:58;5.30;;;2.30;;
14528;SDS011;7351;51.194;4.098;2023-05-16T09:28:25;3.97;;;1.90;;
14528;SDS011;7351;51.194;4.098;2023-05-16T09:30:52;2.17;;;1.77;;
14528;SDS011;7351;51.194;4.098;2023-05-16T09:33:21;3.60;;;1.90;;
14528;SDS011;7351;51.194;4.098;2023-05-16T09:35:53;3.37;;;1.77;;
14528;SDS011;7351;51.194;4.098;2023-05-16T09:38:21;4.57;;;2.03;;
14528;SDS011;7351;51.194;4.098;2023-05-16T09:40:50;3.37;;;1.73;;
14528;SDS011;7351;51.194;4.098;2023-05-16T09:43:19;5.30;;;2.53;;
14528;SDS011;7351;51.194;4.098;2023-05-16T09:45:50;2.40;;;1.57;;
14528;SDS011;7351;51.194;4.098;2023-05-16T09:48:17;2.13;;;1.50;;
14528;SDS011;7351;51.194;4.098;2023-05-16T09:50:47;4.47;;;2.37;;
14528;SDS011;7351;51.194;4.098;2023-05-16T09:53:17;4.00;;;2.13;;
14528;SDS011;7351;51.194;4.098;2023-05-16T09:55:59;4.53;;;2.17;;
14528;SDS011;7351;51.194;4.098;2023-05-16T09:58:27;5.27;;;1.70;;
14528;SDS011;7351;51.194;4.098;2023-05-16T10:00:55;3.80;;;1.50;;
14528;SDS011;7351;51.194;4.098;2023-05-16T10:03:23;1.93;;;1.40;;
14528;SDS011;7351;51.194;4.098;2023-05-16T10:05:51;5.17;;;1.60;;
14528;SDS011;7351;51.194;4.098;2023-05-16T10:08:19;3.90;;;1.70;;
14528;SDS011;7351;51.194;4.098;2023-05-16T10:10:49;5.20;;;2.40;;
14528;SDS011;7351;51.194;4.098;2023-05-16T10:13:19;3.57;;;1.63;;
14528;SDS011;7351;51.194;4.098;2023-05-16T10:15:47;2.60;;;1.73;;
14528;SDS011;7351;51.194;4.098;2023-05-16T10:18:15;4.07;;;1.70;;
14528;SDS011;7351;51.194;4.098;2023-05-16T10:20:44;3.03;;;1.60;;
14528;SDS011;7351;51.194;4.098;2023-05-16T10:23:15;5.13;;;2.37;;
14528;SDS011;7351;51.194;4.098;2023-05-16T10:25:44;6.13;;;1.83;;
14528;SDS011;7351;51.194;4.098;2023-05-16T10:28:12;5.33;;;1.60;;
14528;SDS011;7351;51.194;4.098;2023-05-16T10:30:42;6.40;;;1.97;;
14528;SDS011;7351;51.194;4.098;2023-05-16T10:33:10;3.03;;;1.33;;
14528;SDS011;7351;51.194;4.098;2023-05-16T10:35:39;6.43;;;2.27;;
14528;SDS011;7351;51.194;4.098;2023-05-16T10:38:06;5.60;;;1.50;;
14528;SDS011;7351;51.194;4.098;2023-05-16T10:40:35;6.43;;;1.37;;
14528;SDS011;7351;51.194;4.098;2023-05-16T10:43:04;8.37;;;1.73;;
14528;SDS011;7351;51.194;4.098;2023-05-16T10:45:32;7.87;;;2.03;;
14528;SDS011;7351;51.194;4.098;2023-05-16T10:48:01;9.30;;;2.50;;
14528;SDS011;7351;51.194;4.098;2023-05-16T10:50:34;8.10;;;1.73;;
14528;SDS011;7351;51.194;4.098;2023-05-16T10:53:15;11.07;;;2.07;;
14528;SDS011;7351;51.194;4.098;2023-05-16T10:55:47;10.10;;;2.20;;
14528;SDS011;7351;51.194;4.098;2023-05-16T10:58:22;8.53;;;2.57;;
14528;SDS011;7351;51.194;4.098;2023-05-16T11:04:06;6.13;;;2.50;;
14528;SDS011;7351;51.194;4.098;2023-05-16T11:06:42;8.10;;;2.30;;
14528;SDS011;7351;51.194;4.098;2023-05-16T11:09:18;7.23;;;2.17;;
14528;SDS011;7351;51.194;4.098;2023-05-16T11:11:57;7.27;;;1.77;;
14528;SDS011;7351;51.194;4.098;2023-05-16T11:14:27;7.63;;;2.17;;
14528;SDS011;7351;51.194;4.098;2023-05-16T11:17:01;5.43;;;1.83;;
14528;SDS011;7351;51.194;4.098;2023-05-16T11:19:34;6.03;;;2.10;;
14528;SDS011;7351;51.194;4.098;2023-05-16T11:22:06;5.57;;;1.53;;
14528;SDS011;7351;51.194;4.098;2023-05-16T11:24:34;3.47;;;1.60;;
14528;SDS011;7351;51.194;4.098;2023-05-16T11:27:03;6.67;;;2.93;;
14528;SDS011;7351;51.194;4.098;2023-05-16T11:29:31;7.13;;;2.23;;
14528;SDS011;7351;51.194;4.098;2023-05-16T11:32:00;7.37;;;1.80;;
14528;SDS011;7351;51.194;4.098;2023-05-16T11:34:28;4.33;;;1.60;;
14528;SDS011;7351;51.194;4.098;2023-05-16T11:36:57;11.53;;;2.73;;
14528;SDS011;7351;51.194;4.098;2023-05-16T11:39:26;7.37;;;1.80;;
14528;SDS011;7351;51.194;4.098;2023-05-16T11:41:55;3.23;;;1.40;;
14528;SDS011;7351;51.194;4.098;2023-05-16T11:44:22;6.20;;;2.00;;
14528;SDS011;7351;51.194;4.098;2023-05-16T11:46:49;2.23;;;1.43;;
14528;SDS011;7351;51.194;4.098;2023-05-16T11:49:16;4.03;;;1.30;;
14528;SDS011;7351;51.194;4.098;2023-05-16T11:51:43;3.90;;;1.90;;
14528;SDS011;7351;51.194;4.098;2023-05-16T11:54:12;3.97;;;1.50;;
14528;SDS011;7351;51.194;4.098;2023-05-16T11:56:39;3.60;;;2.00;;
14528;SDS011;7351;51.194;4.098;2023-05-16T11:59:06;7.43;;;1.93;;
14528;SDS011;7351;51.194;4.098;2023-05-16T12:01:34;7.43;;;2.37;;
14528;SDS011;7351;51.194;4.098;2023-05-16T12:04:02;7.07;;;1.80;;
14528;SDS011;7351;51.194;4.098;2023-05-16T12:06:33;4.43;;;1.80;;
14528;SDS011;7351;51.194;4.098;2023-05-16T12:09:00;9.23;;;2.50;;
14528;SDS011;7351;51.194;4.098;2023-05-16T12:11:35;5.67;;;2.00;;
14528;SDS011;7351;51.194;4.098;2023-05-16T12:14:02;5.50;;;2.10;;
14528;SDS011;7351;51.194;4.098;2023-05-16T12:16:30;7.10;;;1.87;;
14528;SDS011;7351;51.194;4.098;2023-05-16T12:18:58;3.17;;;1.87;;
14528;SDS011;7351;51.194;4.098;2023-05-16T12:21:26;8.10;;;1.63;;
14528;SDS011;7351;51.194;4.098;2023-05-16T12:23:54;7.63;;;2.17;;
14528;SDS011;7351;51.194;4.098;2023-05-16T12:26:25;8.20;;;1.80;;
14528;SDS011;7351;51.194;4.098;2023-05-16T12:28:57;7.90;;;2.17;;
14528;SDS011;7351;51.194;4.098;2023-05-16T12:31:27;17.53;;;2.23;;
14528;SDS011;7351;51.194;4.098;2023-05-16T12:33:55;6.90;;;2.13;;
14528;SDS011;7351;51.194;4.098;2023-05-16T12:36:22;5.23;;;1.53;;
14528;SDS011;7351;51.194;4.098;2023-05-16T12:38:50;5.40;;;2.20;;
14528;SDS011;7351;51.194;4.098;2023-05-16T12:41:18;6.40;;;1.90;;
14528;SDS011;7351;51.194;4.098;2023-05-16T12:43:46;4.37;;;1.83;;
14528;SDS011;7351;51.194;4.098;2023-05-16T12:46:15;5.70;;;2.30;;
14528;SDS011;7351;51.194;4.098;2023-05-16T12:48:42;9.67;;;2.53;;
14528;SDS011;7351;51.194;4.098;2023-05-16T12:51:10;11.57;;;2.63;;
14528;SDS011;7351;51.194;4.098;2023-05-16T12:53:41;3.77;;;1.97;;
14528;SDS011;7351;51.194;4.098;2023-05-16T12:56:09;9.70;;;2.63;;
14528;SDS011;7351;51.194;4.098;2023-05-16T12:58:37;5.97;;;2.03;;
14528;SDS011;7351;51.194;4.098;2023-05-16T13:01:04;4.93;;;1.80;;
14528;SDS011;7351;51.194;4.098;2023-05-16T13:03:33;6.73;;;2.43;;
14528;SDS011;7351;51.194;4.098;2023-05-16T13:06:01;4.17;;;2.10;;
14528;SDS011;7351;51.194;4.098;2023-05-16T13:08:29;6.83;;;1.90;;
14528;SDS011;7351;51.194;4.098;2023-05-16T13:10:57;6.40;;;1.73;;
14528;SDS011;7351;51.194;4.098;2023-05-16T13:13:23;6.00;;;2.00;;
14528;SDS011;7351;51.194;4.098;2023-05-16T13:15:50;5.67;;;1.93;;
14528;SDS011;7351;51.194;4.098;2023-05-16T13:18:17;9.43;;;2.60;;
14528;SDS011;7351;51.194;4.098;2023-05-16T13:20:46;9.47;;;2.43;;
14528;SDS011;7351;51.194;4.098;2023-05-16T13:23:13;3.23;;;1.63;;
14528;SDS011;7351;51.194;4.098;2023-05-16T13:25:40;5.13;;;2.20;;
14528;SDS011;7351;51.194;4.098;2023-05-16T13:28:07;5.00;;;1.87;;
14528;SDS011;7351;51.194;4.098;2023-05-16T13:30:35;5.87;;;2.17;;
14528;SDS011;7351;51.194;4.098;2023-05-16T13:33:02;2.83;;;1.37;;
14528;SDS011;7351;51.194;4.098;2023-05-16T13:35:29;3.13;;;1.80;;
14528;SDS011;7351;51.194;4.098;2023-05-16T13:37:57;3.60;;;2.30;;
14528;SDS011;7351;51.194;4.098;2023-05-16T13:40:24;6.73;;;2.07;;
14528;SDS011;7351;51.194;4.098;2023-05-16T13:42:52;2.17;;;1.33;;
14528;SDS011;7351;51.194;4.098;2023-05-16T13:45:19;4.03;;;1.83;;
14528;SDS011;7351;51.194;4.098;2023-05-16T13:47:46;7.57;;;2.30;;
14528;SDS011;7351;51.194;4.098;2023-05-16T13:50:13;3.60;;;1.43;;
14528;SDS011;7351;51.194;4.098;2023-05-16T13:52:40;5.90;;;1.77;;
14528;SDS011;7351;51.194;4.098;2023-05-16T13:55:09;6.27;;;1.70;;
14528;SDS011;7351;51.194;4.098;2023-05-16T13:57:36;7.30;;;2.10;;
14528;SDS011;7351;51.194;4.098;2023-05-16T14:00:04;2.77;;;1.63;;
14528;SDS011;7351;51.194;4.098;2023-05-16T14:02:37;3.90;;;2.07;;
14528;SDS011;7351;51.194;4.098;2023-05-16T14:05:05;5.10;;;1.60;;
14528;SDS011;7351;51.194;4.098;2023-05-16T14:07:32;7.60;;;2.13;;
14528;SDS011;7351;51.194;4.098;2023-05-16T14:09:59;5.40;;;1.83;;
14528;SDS011;7351;51.194;4.098;2023-05-16T14:12:28;4.83;;;2.07;;
14528;SDS011;7351;51.194;4.098;2023-05-16T14:14:55;4.67;;;1.77;;
14528;SDS011;7351;51.194;4.098;2023-05-16T14:17:23;5.10;;;1.80;;
14528;SDS011;7351;51.194;4.098;2023-05-16T14:19:50;9.47;;;1.47;;
14528;SDS011;7351;51.194;4.098;2023-05-16T14:22:17;2.43;;;1.60;;
14528;SDS011;7351;51.194;4.098;2023-05-16T14:24:44;3.47;;;1.67;;
14528;SDS011;7351;51.194;4.098;2023-05-16T14:27:11;6.70;;;2.03;;
14528;SDS011;7351;51.194;4.098;2023-05-16T14:29:42;4.90;;;1.93;;
14528;SDS011;7351;51.194;4.098;2023-05-16T14:32:09;6.13;;;1.70;;
14528;SDS011;7351;51.194;4.098;2023-05-16T14:34:36;4.57;;;1.77;;
14528;SDS011;7351;51.194;4.098;2023-05-16T14:37:03;4.07;;;1.90;;
14528;SDS011;7351;51.194;4.098;2023-05-16T14:39:30;9.97;;;1.60;;
14528;SDS011;7351;51.194;4.098;2023-05-16T14:41:57;5.17;;;1.97;;
14528;SDS011;7351;51.194;4.098;2023-05-16T14:44:24;5.20;;;1.67;;
14528;SDS011;7351;51.194;4.098;2023-05-16T14:46:53;4.37;;;2.00;;
14528;SDS011;7351;51.194;4.098;2023-05-16T14:49:20;13.73;;;1.97;;
14528;SDS011;7351;51.194;4.098;2023-05-16T14:51:47;5.03;;;1.77;;
14528;SDS011;7351;51.194;4.098;2023-05-16T14:54:14;5.00;;;1.80;;
14528;SDS011;7351;51.194;4.098;2023-05-16T14:56:41;4.47;;;1.83;;
14528;SDS011;7351;51.194;4.098;2023-05-16T14:59:08;5.93;;;2.13;;
14528;SDS011;7351;51.194;4.098;2023-05-16T15:01:36;7.27;;;2.17;;
14528;SDS011;7351;51.194;4.098;2023-05-16T15:04:05;7.73;;;1.90;;
14528;SDS011;7351;51.194;4.098;2023-05-16T15:06:32;6.40;;;1.90;;
14528;SDS011;7351;51.194;4.098;2023-05-16T15:08:59;9.80;;;2.50;;